createdAt,value
2022-09-10T00:01:28.269Z,14.47
2022-09-10T00:03:54.566Z,14.40
2022-09-10T00:06:20.762Z,14.40
2022-09-10T00:08:46.971Z,14.37
2022-09-10T00:11:13.176Z,14.45
2022-09-10T00:13:39.560Z,14.50
2022-09-10T00:16:06.984Z,14.54
2022-09-10T00:18:33.229Z,14.57
2022-09-10T00:20:59.579Z,14.58
2022-09-10T00:23:26.556Z,14.56
2022-09-10T00:25:52.936Z,14.56
2022-09-10T00:28:19.581Z,14.53
2022-09-10T00:30:46.478Z,14.50
2022-09-10T00:33:12.991Z,14.49
2022-09-10T00:35:39.236Z,14.49
2022-09-10T00:38:05.629Z,14.21
2022-09-10T00:40:31.831Z,14.22
2022-09-10T00:42:58.066Z,14.09
2022-09-10T00:45:25.267Z,14.16
2022-09-10T00:47:51.957Z,14.01
2022-09-10T00:50:25.393Z,13.90
2022-09-10T00:52:52.182Z,13.76
2022-09-10T00:55:18.383Z,13.95
2022-09-10T00:57:44.815Z,14.02
2022-09-10T01:00:11.293Z,13.85
2022-09-10T01:02:37.481Z,13.91
2022-09-10T01:05:03.913Z,14.00
2022-09-10T01:07:30.110Z,14.04
2022-09-10T01:09:57.190Z,14.07
2022-09-10T01:12:26.098Z,14.10
2022-09-10T01:15:11.055Z,14.10
2022-09-10T01:17:39.739Z,14.09
2022-09-10T01:20:05.909Z,14.07
2022-09-10T01:22:41.196Z,14.07
2022-09-10T01:25:10.984Z,14.05
2022-09-10T01:27:47.822Z,14.04
2022-09-10T01:30:15.641Z,14.02
2022-09-10T01:32:44.809Z,13.96
2022-09-10T01:35:22.777Z,13.91
2022-09-10T01:37:56.138Z,13.94
2022-09-10T01:40:22.359Z,13.94
2022-09-10T01:42:48.554Z,13.93
2022-09-10T01:45:14.862Z,13.90
2022-09-10T01:47:59.872Z,13.82
2022-09-10T01:50:28.772Z,13.63
2022-09-10T01:53:00.838Z,13.22
2022-09-10T01:55:31.198Z,13.37
2022-09-10T01:58:03.348Z,13.50
2022-09-10T02:00:29.540Z,13.63
2022-09-10T02:02:58.706Z,13.59
2022-09-10T02:05:24.941Z,13.38
2022-09-10T02:07:52.085Z,13.10
2022-09-10T02:10:18.282Z,13.10
2022-09-10T02:12:44.870Z,13.28
2022-09-10T02:15:11.074Z,13.44
2022-09-10T02:17:37.480Z,13.57
2022-09-10T02:20:07.328Z,13.63
2022-09-10T02:22:33.804Z,13.69
2022-09-10T02:24:59.988Z,13.72
2022-09-10T02:27:26.186Z,13.72
2022-09-10T02:29:52.385Z,13.73
2022-09-10T02:32:18.588Z,13.71
2022-09-10T02:34:44.781Z,13.50
2022-09-10T02:37:10.994Z,13.18
2022-09-10T02:39:37.230Z,12.89
2022-09-10T02:42:03.522Z,13.08
2022-09-10T02:44:29.721Z,13.25
2022-09-10T02:46:55.932Z,13.35
2022-09-10T02:49:22.120Z,13.42
2022-09-10T02:51:48.357Z,13.47
2022-09-10T02:54:14.554Z,13.51
2022-09-10T02:56:40.762Z,13.53
2022-09-10T02:59:06.948Z,13.54
2022-09-10T03:01:33.144Z,13.55
2022-09-10T03:03:59.345Z,13.55
2022-09-10T03:06:25.734Z,13.48
2022-09-10T03:08:51.937Z,13.51
2022-09-10T03:11:18.141Z,13.50
2022-09-10T03:13:44.575Z,13.49
2022-09-10T03:16:10.803Z,13.50
2022-09-10T03:18:37.067Z,13.48
2022-09-10T03:21:09.797Z,13.51
2022-09-10T03:23:37.457Z,13.52
2022-09-10T03:26:03.778Z,13.54
2022-09-10T03:28:29.964Z,13.54
2022-09-10T03:30:56.176Z,13.41
2022-09-10T03:33:22.369Z,13.41
2022-09-10T03:35:48.569Z,13.44
2022-09-10T03:38:14.779Z,13.49
2022-09-10T03:40:40.978Z,13.51
2022-09-10T03:43:07.173Z,13.34
2022-09-10T03:45:33.419Z,13.04
2022-09-10T03:47:59.652Z,13.08
2022-09-10T03:50:25.841Z,13.09
2022-09-10T03:52:52.058Z,13.00
2022-09-10T03:55:18.257Z,13.00
2022-09-10T03:57:44.468Z,12.97
2022-09-10T04:00:10.784Z,12.99
2022-09-10T04:02:37.050Z,13.00
2022-09-10T04:05:03.556Z,12.85
2022-09-10T04:07:29.749Z,12.67
2022-09-10T04:09:55.962Z,12.77
2022-09-10T04:12:22.160Z,12.89
2022-09-10T04:14:48.354Z,13.04
2022-09-10T04:17:14.552Z,13.14
2022-09-10T04:19:40.743Z,13.16
2022-09-10T04:22:06.945Z,13.21
2022-09-10T04:24:33.145Z,13.25
2022-09-10T04:26:59.360Z,13.29
2022-09-10T04:29:25.563Z,13.32
2022-09-10T04:31:51.831Z,12.97
2022-09-10T04:34:18.079Z,12.97
2022-09-10T04:36:44.294Z,13.05
2022-09-10T04:39:10.491Z,13.09
2022-09-10T04:41:36.701Z,13.16
2022-09-10T04:44:02.902Z,13.20
2022-09-10T04:46:29.105Z,13.23
2022-09-10T04:48:55.296Z,13.29
2022-09-10T04:51:21.506Z,13.32
2022-09-10T04:53:47.698Z,13.35
2022-09-10T04:56:13.900Z,13.36
2022-09-10T04:58:40.285Z,13.29
2022-09-10T05:01:06.991Z,13.17
2022-09-10T05:03:33.287Z,13.13
2022-09-10T05:05:59.499Z,12.90
2022-09-10T05:08:25.700Z,13.15
2022-09-10T05:10:51.902Z,13.47
2022-09-10T05:13:18.092Z,14.06
2022-09-10T05:15:44.290Z,14.86
2022-09-10T05:18:10.491Z,15.24
2022-09-10T05:20:36.707Z,15.15
2022-09-10T05:23:03.039Z,15.29
2022-09-10T05:25:29.245Z,14.92
2022-09-10T05:27:55.442Z,14.45
2022-09-10T05:30:21.650Z,13.91
2022-09-10T05:32:47.853Z,13.47
2022-09-10T05:35:14.053Z,13.32
2022-09-10T05:37:40.253Z,13.29
2022-09-10T05:40:06.702Z,13.44
2022-09-10T05:42:32.938Z,13.72
2022-09-10T05:44:59.126Z,13.94
2022-09-10T05:47:25.334Z,14.07
2022-09-10T05:49:51.525Z,14.13
2022-09-10T05:52:17.739Z,14.24
2022-09-10T05:54:43.924Z,14.40
2022-09-10T05:57:10.121Z,14.48
2022-09-10T05:59:36.323Z,14.52
2022-09-10T06:02:02.664Z,14.62
2022-09-10T06:04:28.906Z,14.76
2022-09-10T06:06:55.119Z,14.96
2022-09-10T06:09:21.329Z,15.50
2022-09-10T06:11:47.821Z,16.03
2022-09-10T06:14:14.016Z,16.27
2022-09-10T06:16:40.414Z,16.15
2022-09-10T06:19:06.652Z,16.19
2022-09-10T06:21:32.853Z,16.21
2022-09-10T06:23:59.043Z,15.91
2022-09-10T06:26:25.246Z,15.78
2022-09-10T06:28:51.441Z,15.70
2022-09-10T06:31:17.645Z,15.63
2022-09-10T06:33:43.938Z,15.54
2022-09-10T06:36:10.150Z,15.46
2022-09-10T06:38:36.349Z,15.54
2022-09-10T06:41:03.379Z,15.61
2022-09-10T06:43:31.369Z,15.69
2022-09-10T06:45:57.649Z,15.64
2022-09-10T06:48:49.559Z,15.56
2022-09-10T06:51:10.300Z,15.56
2022-09-10T06:53:36.568Z,15.61
2022-09-10T06:56:03.354Z,15.65
2022-09-10T06:58:30.216Z,15.71
2022-09-10T07:00:56.476Z,15.96
2022-09-10T07:03:22.705Z,16.06
2022-09-10T07:05:48.905Z,16.06
2022-09-10T07:08:15.283Z,16.06
2022-09-10T07:10:41.736Z,16.48
2022-09-10T07:13:07.932Z,17.03
2022-09-10T07:15:34.351Z,17.67
2022-09-10T07:18:00.589Z,17.95
2022-09-10T07:20:26.806Z,17.92
2022-09-10T07:22:53.033Z,17.65
2022-09-10T07:25:19.234Z,17.57
2022-09-10T07:27:45.658Z,17.84
2022-09-10T07:30:12.085Z,18.62
2022-09-10T07:32:38.524Z,19.05
2022-09-10T07:35:04.958Z,19.37
2022-09-10T07:37:33.475Z,19.57
2022-09-10T07:39:59.868Z,19.41
2022-09-10T07:42:26.149Z,19.68
2022-09-10T07:44:52.374Z,19.99
2022-09-10T07:47:18.585Z,20.16
2022-09-10T07:49:44.777Z,19.98
2022-09-10T07:52:11.105Z,19.84
2022-09-10T07:54:37.349Z,20.03
2022-09-10T07:57:03.821Z,20.14
2022-09-10T07:59:30.008Z,20.07
2022-09-10T08:01:56.542Z,20.08
2022-09-10T08:04:22.756Z,19.93
2022-09-10T08:06:48.961Z,20.08
2022-09-10T08:09:15.159Z,20.12
2022-09-10T08:11:41.375Z,20.18
2022-09-10T08:14:07.574Z,20.48
2022-09-10T08:16:33.807Z,20.70
2022-09-10T08:19:00.005Z,20.89
2022-09-10T08:21:26.209Z,21.03
2022-09-10T08:23:53.051Z,20.84
2022-09-10T08:26:19.394Z,20.86
2022-09-10T08:28:45.590Z,20.65
2022-09-10T08:31:11.918Z,20.60
2022-09-10T08:33:38.531Z,20.86
2022-09-10T08:36:05.001Z,21.02
2022-09-10T08:38:31.974Z,21.06
2022-09-10T08:40:58.222Z,21.17
2022-09-10T08:43:27.420Z,21.25
2022-09-10T08:45:53.642Z,21.42
2022-09-10T08:48:20.562Z,21.50
2022-09-10T08:50:48.101Z,21.85
2022-09-10T08:53:22.655Z,21.65
2022-09-10T08:55:49.150Z,21.70
2022-09-10T08:58:27.093Z,21.70
2022-09-10T09:00:55.908Z,22.12
2022-09-10T09:03:27.793Z,21.90
2022-09-10T09:06:00.844Z,21.62
2022-09-10T09:08:30.911Z,21.31
2022-09-10T09:10:59.438Z,21.53
2022-09-10T09:13:28.606Z,21.63
2022-09-10T09:15:57.703Z,21.85
2022-09-10T09:18:27.372Z,21.96
2022-09-10T09:20:56.980Z,22.08
2022-09-10T09:23:32.536Z,22.00
2022-09-10T09:26:03.131Z,22.03
2022-09-10T09:28:32.355Z,22.21
2022-09-10T09:30:58.605Z,22.20
2022-09-10T09:33:24.806Z,21.97
2022-09-10T09:35:55.681Z,20.85
2022-09-10T09:38:23.110Z,20.55
2022-09-10T09:40:50.076Z,20.99
2022-09-10T09:43:25.318Z,21.06
2022-09-10T09:45:53.985Z,20.52
2022-09-10T09:48:20.787Z,20.59
2022-09-10T09:50:48.194Z,21.26
2022-09-10T09:53:19.361Z,21.69
2022-09-10T09:56:11.669Z,21.70
2022-09-10T09:58:37.902Z,22.34
2022-09-10T10:01:04.170Z,22.42
2022-09-10T10:03:31.180Z,22.33
2022-09-10T10:06:03.826Z,22.56
2022-09-10T10:08:31.153Z,22.61
2022-09-10T10:10:57.471Z,22.56
2022-09-10T10:13:23.797Z,22.50
2022-09-10T10:15:50.123Z,22.44
2022-09-10T10:18:22.466Z,22.56
2022-09-10T10:20:49.042Z,22.36
2022-09-10T10:23:47.497Z,22.14
2022-09-10T10:26:19.522Z,21.30
2022-09-10T10:28:51.764Z,20.85
2022-09-10T10:31:18.135Z,20.92
2022-09-10T10:33:56.394Z,20.94
2022-09-10T10:36:24.321Z,20.75
2022-09-10T10:39:09.330Z,21.11
2022-09-10T10:41:39.342Z,22.15
2022-09-10T10:44:05.477Z,22.13
2022-09-10T10:46:43.611Z,22.45
2022-09-10T10:49:18.837Z,22.49
2022-09-10T10:51:48.501Z,22.58
2022-09-10T10:54:33.660Z,21.76
2022-09-10T10:57:05.583Z,21.47
2022-09-10T10:59:50.598Z,21.17
2022-09-10T11:02:33.677Z,21.09
2022-09-10T11:05:00.898Z,20.87
2022-09-10T11:07:37.555Z,21.39
2022-09-10T11:10:05.031Z,22.17
2022-09-10T11:12:35.492Z,21.93
2022-09-10T11:15:03.047Z,21.54
2022-09-10T11:17:29.197Z,20.97
2022-09-10T11:20:30.268Z,20.71
2022-09-10T11:23:02.809Z,20.56
2022-09-10T11:25:30.646Z,20.42
2022-09-10T11:28:16.440Z,20.53
2022-09-10T11:30:43.742Z,20.55
2022-09-10T11:33:13.019Z,20.75
2022-09-10T11:35:43.749Z,21.18
2022-09-10T11:38:15.550Z,21.28
2022-09-10T11:40:57.600Z,21.07
2022-09-10T11:43:29.237Z,20.69
2022-09-10T11:45:56.762Z,20.98
2022-09-10T11:48:24.690Z,21.09
2022-09-10T11:50:55.097Z,20.89
2022-09-10T11:53:21.813Z,20.83
2022-09-10T11:55:54.090Z,20.58
2022-09-10T11:58:22.096Z,20.32
2022-09-10T12:00:51.610Z,20.25
2022-09-10T12:03:21.914Z,20.21
2022-09-10T12:05:52.970Z,20.17
2022-09-10T12:08:31.284Z,20.04
2022-09-10T12:11:17.835Z,20.06
2022-09-10T12:13:44.189Z,20.08
2022-09-10T12:16:16.798Z,20.18
2022-09-10T12:18:44.120Z,20.08
2022-09-10T12:21:29.173Z,20.27
2022-09-10T12:23:55.625Z,20.41
2022-09-10T12:26:21.826Z,20.34
2022-09-10T12:28:47.985Z,20.68
2022-09-10T12:31:17.265Z,21.31
2022-09-10T12:33:43.475Z,21.78
2022-09-10T12:36:09.986Z,21.79
2022-09-10T12:38:45.532Z,21.49
2022-09-10T12:41:12.556Z,21.56
2022-09-10T12:43:38.797Z,21.51
2022-09-10T12:46:11.170Z,21.07
2022-09-10T12:48:41.350Z,20.49
2022-09-10T12:51:10.614Z,20.17
2022-09-10T12:53:41.496Z,19.84
2022-09-10T12:56:26.580Z,19.73
2022-09-10T12:59:09.853Z,19.62
2022-09-10T13:01:42.964Z,19.51
2022-09-10T13:04:23.125Z,19.53
2022-09-10T13:06:49.400Z,19.52
2022-09-10T13:09:19.810Z,19.43
2022-09-10T13:11:47.035Z,19.37
2022-09-10T13:14:16.753Z,19.45
2022-09-10T13:16:42.958Z,19.47
2022-09-10T13:19:12.161Z,19.33
2022-09-10T13:21:38.308Z,19.29
2022-09-10T13:24:13.997Z,19.29
2022-09-10T13:26:50.052Z,19.25
2022-09-10T13:29:26.446Z,19.28
2022-09-10T13:32:00.028Z,19.22
2022-09-10T13:34:36.012Z,19.25
2022-09-10T13:37:05.256Z,19.20
2022-09-10T13:39:50.319Z,19.25
2022-09-10T13:42:39.360Z,19.25
2022-09-10T13:45:18.609Z,19.31
2022-09-10T13:47:46.124Z,19.41
2022-09-10T13:50:16.686Z,19.52
2022-09-10T13:52:43.588Z,19.53
2022-09-10T13:55:16.293Z,19.57
2022-09-10T13:57:42.897Z,19.71
2022-09-10T14:00:15.280Z,19.71
2022-09-10T14:02:45.862Z,19.80
2022-09-10T14:05:41.500Z,19.80
2022-09-10T14:08:11.298Z,19.47
2022-09-10T14:10:47.581Z,19.25
2022-09-10T14:13:14.253Z,19.23
2022-09-10T14:15:40.897Z,19.32
2022-09-10T14:18:07.782Z,19.36
2022-09-10T14:20:34.303Z,19.31
2022-09-10T14:23:01.535Z,19.23
2022-09-10T14:25:31.908Z,19.01
2022-09-10T14:28:16.403Z,18.98
2022-09-10T14:30:43.011Z,19.13
2022-09-10T14:33:28.936Z,18.94
2022-09-10T14:35:55.198Z,19.01
2022-09-10T14:38:21.448Z,19.12
2022-09-10T14:40:47.722Z,19.04
2022-09-10T14:43:14.468Z,19.07
2022-09-10T14:45:44.548Z,19.15
2022-09-10T14:48:29.586Z,19.09
2022-09-10T14:51:03.045Z,19.11
2022-09-10T14:53:29.241Z,19.08
2022-09-10T14:55:55.433Z,19.09
2022-09-10T14:58:21.641Z,19.27
2022-09-10T15:00:47.833Z,19.14
2022-09-10T15:03:14.045Z,19.27
2022-09-10T15:05:40.236Z,19.52
2022-09-10T15:08:06.464Z,19.48
2022-09-10T15:10:32.654Z,19.48
2022-09-10T15:12:58.863Z,19.67
2022-09-10T15:15:25.062Z,19.76
2022-09-10T15:17:51.256Z,19.88
2022-09-10T15:20:17.453Z,19.94
2022-09-10T15:22:43.646Z,19.93
2022-09-10T15:25:25.913Z,19.76
2022-09-10T15:27:52.109Z,19.66
2022-09-10T15:30:18.318Z,19.75
2022-09-10T15:32:44.509Z,19.78
2022-09-10T15:35:10.712Z,19.69
2022-09-10T15:37:36.915Z,19.61
2022-09-10T15:40:03.735Z,19.34
2022-09-10T15:42:30.135Z,19.24
2022-09-10T15:44:56.336Z,19.12
2022-09-10T15:47:22.538Z,19.18
2022-09-10T15:49:48.740Z,19.22
2022-09-10T15:52:14.947Z,19.26
2022-09-10T15:54:41.153Z,19.22
2022-09-10T15:57:07.344Z,19.24
2022-09-10T15:59:33.543Z,19.27
2022-09-10T16:01:59.747Z,19.28
2022-09-10T16:04:25.949Z,19.26
2022-09-10T16:06:52.151Z,19.23
2022-09-10T16:09:18.356Z,19.14
2022-09-10T16:11:44.544Z,18.98
2022-09-10T16:14:11.702Z,18.87
2022-09-10T16:16:37.999Z,18.82
2022-09-10T16:19:04.421Z,18.76
2022-09-10T16:21:31.175Z,18.80
2022-09-10T16:23:57.893Z,18.68
2022-09-10T16:26:25.000Z,18.61
2022-09-10T16:29:01.112Z,18.57
2022-09-10T16:31:28.098Z,18.56
2022-09-10T16:33:55.239Z,18.53
2022-09-10T16:36:21.531Z,18.55
2022-09-10T16:38:51.096Z,18.42
2022-09-10T16:41:17.284Z,18.33
2022-09-10T16:43:43.494Z,18.16
2022-09-10T16:46:10.227Z,18.08
2022-09-10T16:48:36.931Z,18.08
2022-09-10T16:51:03.089Z,18.01
2022-09-10T16:53:29.341Z,17.99
2022-09-10T16:55:59.362Z,17.97
2022-09-10T16:58:25.552Z,17.86
2022-09-10T17:00:51.769Z,17.76
2022-09-10T17:03:17.967Z,17.76
2022-09-10T17:05:44.533Z,17.73
2022-09-10T17:08:10.734Z,17.68
2022-09-10T17:10:36.956Z,17.60
2022-09-10T17:13:03.165Z,17.59
2022-09-10T17:15:29.373Z,17.50
2022-09-10T17:17:55.568Z,17.45
2022-09-10T17:20:21.775Z,17.40
2022-09-10T17:22:47.965Z,17.38
2022-09-10T17:25:14.290Z,17.34
2022-09-10T17:27:40.494Z,17.32
2022-09-10T17:30:06.968Z,17.26
2022-09-10T17:32:33.166Z,17.19
2022-09-10T17:34:59.383Z,17.10
2022-09-10T17:37:25.585Z,17.01
2022-09-10T17:39:51.824Z,16.91
2022-09-10T17:42:18.212Z,16.87
2022-09-10T17:44:44.418Z,16.85
2022-09-10T17:47:10.601Z,16.88
2022-09-10T17:49:36.812Z,16.90
2022-09-10T17:52:03.041Z,16.99
2022-09-10T17:54:29.236Z,17.00
2022-09-10T17:56:55.435Z,17.07
2022-09-10T17:59:21.641Z,17.09
2022-09-10T18:01:47.900Z,17.07
2022-09-10T18:04:14.140Z,17.02
2022-09-10T18:06:40.325Z,16.87
2022-09-10T18:09:06.552Z,16.75
2022-09-10T18:11:33.594Z,16.73
2022-09-10T18:13:59.780Z,16.69
2022-09-10T18:16:26.757Z,16.60
2022-09-10T18:18:54.346Z,16.51
2022-09-10T18:21:27.664Z,16.52
2022-09-10T18:23:54.768Z,16.50
2022-09-10T18:26:21.557Z,16.44
2022-09-10T18:28:56.508Z,16.40
2022-09-10T18:31:27.044Z,16.39
2022-09-10T18:33:53.328Z,16.36
2022-09-10T18:36:19.533Z,16.38
2022-09-10T18:38:45.806Z,16.45
2022-09-10T18:41:18.141Z,16.50
2022-09-10T18:43:44.988Z,16.52
2022-09-10T18:46:11.212Z,16.48
2022-09-10T18:48:37.424Z,16.45
2022-09-10T18:51:06.829Z,16.46
2022-09-10T18:53:33.131Z,16.51
2022-09-10T18:56:04.830Z,16.45
2022-09-10T18:58:31.017Z,16.43
2022-09-10T19:01:11.792Z,16.51
2022-09-10T19:03:39.858Z,16.60
2022-09-10T19:06:06.270Z,16.57
2022-09-10T19:08:32.497Z,16.57
2022-09-10T19:10:58.721Z,16.54
2022-09-10T19:13:24.913Z,16.58
2022-09-10T19:15:54.723Z,16.55
2022-09-10T19:18:20.963Z,16.62
2022-09-10T19:20:47.165Z,16.71
2022-09-10T19:23:13.352Z,16.76
2022-09-10T19:25:39.554Z,16.77
2022-09-10T19:28:05.758Z,16.78
2022-09-10T19:30:36.616Z,16.87
2022-09-10T19:33:02.814Z,16.85
2022-09-10T19:35:29.012Z,16.91
2022-09-10T19:37:55.211Z,16.89
2022-09-10T19:40:21.413Z,16.81
2022-09-10T19:42:47.605Z,16.76
2022-09-10T19:45:13.796Z,16.73
2022-09-10T19:47:39.999Z,16.81
2022-09-10T19:50:06.256Z,16.80
2022-09-10T19:52:32.446Z,16.80
2022-09-10T19:54:58.663Z,16.84
2022-09-10T19:57:24.855Z,16.81
2022-09-10T19:59:51.052Z,16.77
2022-09-10T20:02:17.284Z,16.68
2022-09-10T20:04:43.557Z,16.75
2022-09-10T20:07:09.749Z,16.72
2022-09-10T20:09:39.820Z,16.72
2022-09-10T20:12:06.403Z,16.76
2022-09-10T20:14:32.596Z,16.73
2022-09-10T20:16:58.802Z,16.77
2022-09-10T20:19:24.988Z,16.66
2022-09-10T20:21:51.191Z,16.59
2022-09-10T20:24:17.389Z,16.52
2022-09-10T20:26:43.600Z,16.54
2022-09-10T20:29:10.544Z,16.55
2022-09-10T20:31:36.830Z,16.63
2022-09-10T20:34:03.908Z,16.60
2022-09-10T20:36:30.149Z,16.50
2022-09-10T20:38:56.342Z,16.35
2022-09-10T20:41:22.547Z,16.24
2022-09-10T20:43:51.887Z,16.15
2022-09-10T20:46:18.463Z,16.11
2022-09-10T20:48:48.795Z,16.12
2022-09-10T20:51:15.474Z,16.09
2022-09-10T20:53:41.661Z,16.12
2022-09-10T20:56:08.869Z,16.05
2022-09-10T20:58:35.570Z,16.05
2022-09-10T21:01:08.774Z,16.10
2022-09-10T21:03:34.964Z,16.04
2022-09-10T21:06:01.161Z,16.05
2022-09-10T21:08:27.625Z,16.02
2022-09-10T21:10:53.821Z,16.02
2022-09-10T21:13:23.269Z,16.06
2022-09-10T21:15:51.250Z,16.00
2022-09-10T21:18:17.456Z,15.97
2022-09-10T21:20:43.639Z,15.97
2022-09-10T21:23:09.845Z,16.09
2022-09-10T21:25:36.046Z,16.10
2022-09-10T21:28:02.338Z,16.10
2022-09-10T21:30:28.538Z,16.17
2022-09-10T21:32:54.751Z,16.11
2022-09-10T21:35:20.949Z,16.17
2022-09-10T21:37:47.148Z,16.23
2022-09-10T21:40:13.365Z,16.23
2022-09-10T21:42:39.634Z,16.21
2022-09-10T21:45:06.078Z,16.23
2022-09-10T21:47:32.295Z,16.29
2022-09-10T21:49:58.493Z,16.28
2022-09-10T21:52:24.693Z,16.22
2022-09-10T21:54:50.894Z,16.14
2022-09-10T21:57:17.106Z,16.04
2022-09-10T21:59:43.297Z,15.97
2022-09-10T22:02:09.597Z,15.95
2022-09-10T22:04:35.832Z,15.93
2022-09-10T22:07:02.040Z,15.89
2022-09-10T22:09:28.228Z,15.82
2022-09-10T22:11:54.472Z,15.82
2022-09-10T22:14:21.479Z,15.81
2022-09-10T22:16:47.718Z,15.75
2022-09-10T22:19:15.180Z,15.77
2022-09-10T22:21:41.387Z,15.69
2022-09-10T22:24:11.137Z,15.59
2022-09-10T22:26:39.066Z,15.55
2022-09-10T22:29:05.272Z,15.63
2022-09-10T22:31:32.192Z,15.60
2022-09-10T22:33:59.273Z,15.55
2022-09-10T22:36:26.191Z,15.54
2022-09-10T22:38:53.130Z,15.55
2022-09-10T22:41:19.450Z,15.51
2022-09-10T22:43:45.681Z,15.51
2022-09-10T22:46:11.954Z,15.56
2022-09-10T22:48:38.646Z,15.67
2022-09-10T22:51:05.157Z,15.73
2022-09-10T22:53:31.370Z,15.68
2022-09-10T22:55:57.570Z,15.68
2022-09-10T22:58:23.942Z,15.63
2022-09-10T23:00:50.137Z,15.76
2022-09-10T23:03:16.366Z,15.78
2022-09-10T23:05:42.580Z,15.79
2022-09-10T23:08:08.792Z,15.89
2022-09-10T23:10:34.990Z,15.93
2022-09-10T23:13:01.210Z,16.01
2022-09-10T23:15:29.718Z,16.00
2022-09-10T23:17:55.916Z,15.98
2022-09-10T23:20:22.104Z,15.92
2022-09-10T23:22:48.316Z,15.82
2022-09-10T23:25:14.523Z,15.76
2022-09-10T23:27:40.728Z,15.67
2022-09-10T23:30:07.065Z,15.80
2022-09-10T23:32:33.252Z,15.90
2022-09-10T23:34:59.456Z,15.96
2022-09-10T23:37:25.662Z,15.99
2022-09-10T23:39:51.921Z,16.05
2022-09-10T23:42:18.150Z,16.09
2022-09-10T23:44:44.368Z,16.11
2022-09-10T23:47:10.570Z,16.11
2022-09-10T23:49:36.780Z,16.12
2022-09-10T23:52:02.978Z,16.13
2022-09-10T23:54:29.188Z,16.13
2022-09-10T23:56:55.396Z,16.10
2022-09-10T23:59:21.597Z,16.07
